Alto Springs, Texas
Current Conditions -  °F | °C
As of 10:55 AM on Sunday 23 Nov 2014 (Local Time) from KLXY Reporting Station
Clear Clear  
Wind Chill: 67°   Ceiling: Unl
Heat Index: 67°   Visibility: 10mi
Dew Point: 57°   Wind: 15mph
Humidity: 70%   Direction: 220°SW
Pressure: 29.56"   Gusts: 22mph
Location:  31.3327°N, 96.6013°W
Report Text: KLXY 231655Z AUTO 22013G19KT 10SM CLR 19/14 A2956 RMK AO2 T01930138
Loading
Personal Weather Stations






























Interactive Weather Map New forecast layout! Learn more

10-Day Weather Forecast

Advertisements
Track Severe Weather on mobile